sensor_id;sensor_type;location;lat;lon;timestamp;P1;durP1;ratioP1;P2;durP2;ratioP2
27223;SDS011;14965;50.660;13.226;2023-05-10T00:05:32;19.45;;;6.45;;
27223;SDS011;14965;50.660;13.226;2023-05-10T00:08:12;13.57;;;6.53;;
27223;SDS011;14965;50.660;13.226;2023-05-10T00:11:22;18.92;;;6.57;;
27223;SDS011;14965;50.660;13.226;2023-05-10T00:13:40;10.48;;;5.50;;
27223;SDS011;14965;50.660;13.226;2023-05-10T00:16:29;10.00;;;5.93;;
27223;SDS011;14965;50.660;13.226;2023-05-10T00:29:12;16.50;;;5.90;;
27223;SDS011;14965;50.660;13.226;2023-05-10T00:47:24;14.40;;;6.00;;
27223;SDS011;14965;50.660;13.226;2023-05-10T00:51:08;13.90;;;6.45;;
27223;SDS011;14965;50.660;13.226;2023-05-10T00:54:38;13.10;;;6.38;;
27223;SDS011;14965;50.660;13.226;2023-05-10T01:01:43;17.08;;;5.97;;
27223;SDS011;14965;50.660;13.226;2023-05-10T01:45:16;11.57;;;5.93;;
27223;SDS011;14965;50.660;13.226;2023-05-10T01:48:53;8.98;;;5.78;;
27223;SDS011;14965;50.660;13.226;2023-05-10T02:06:29;17.45;;;7.03;;
27223;SDS011;14965;50.660;13.226;2023-05-10T02:08:58;13.07;;;6.82;;
27223;SDS011;14965;50.660;13.226;2023-05-10T02:12:01;11.13;;;6.25;;
27223;SDS011;14965;50.660;13.226;2023-05-10T02:14:47;9.32;;;6.25;;
27223;SDS011;14965;50.660;13.226;2023-05-10T02:17:18;11.90;;;6.50;;
27223;SDS011;14965;50.660;13.226;2023-05-10T02:19:48;12.38;;;6.05;;
27223;SDS011;14965;50.660;13.226;2023-05-10T02:22:36;9.18;;;5.93;;
27223;SDS011;14965;50.660;13.226;2023-05-10T02:25:05;10.05;;;5.65;;
27223;SDS011;14965;50.660;13.226;2023-05-10T02:27:38;9.63;;;6.00;;
27223;SDS011;14965;50.660;13.226;2023-05-10T02:30:11;9.63;;;6.10;;
27223;SDS011;14965;50.660;13.226;2023-05-10T02:32:58;11.55;;;6.22;;
27223;SDS011;14965;50.660;13.226;2023-05-10T02:35:26;8.13;;;6.00;;
27223;SDS011;14965;50.660;13.226;2023-05-10T02:37:55;8.10;;;6.07;;
27223;SDS011;14965;50.660;13.226;2023-05-10T02:40:23;9.80;;;5.63;;
27223;SDS011;14965;50.660;13.226;2023-05-10T02:42:52;11.73;;;5.85;;
27223;SDS011;14965;50.660;13.226;2023-05-10T02:45:23;8.57;;;6.18;;
27223;SDS011;14965;50.660;13.226;2023-05-10T02:47:54;10.60;;;5.32;;
27223;SDS011;14965;50.660;13.226;2023-05-10T02:50:21;9.27;;;6.10;;
27223;SDS011;14965;50.660;13.226;2023-05-10T02:52:52;7.50;;;5.63;;
27223;SDS011;14965;50.660;13.226;2023-05-10T02:55:26;8.30;;;5.80;;
27223;SDS011;14965;50.660;13.226;2023-05-10T02:57:58;8.10;;;5.70;;
27223;SDS011;14965;50.660;13.226;2023-05-10T03:00:27;10.68;;;6.72;;
27223;SDS011;14965;50.660;13.226;2023-05-10T03:02:54;8.35;;;5.72;;
27223;SDS011;14965;50.660;13.226;2023-05-10T03:05:20;9.13;;;5.63;;
27223;SDS011;14965;50.660;13.226;2023-05-10T03:07:46;8.50;;;5.70;;
27223;SDS011;14965;50.660;13.226;2023-05-10T03:10:14;12.95;;;5.35;;
27223;SDS011;14965;50.660;13.226;2023-05-10T03:12:49;10.02;;;5.65;;
27223;SDS011;14965;50.660;13.226;2023-05-10T03:15:32;7.43;;;5.55;;
27223;SDS011;14965;50.660;13.226;2023-05-10T03:18:16;9.80;;;5.78;;
27223;SDS011;14965;50.660;13.226;2023-05-10T03:21:04;11.33;;;6.10;;
27223;SDS011;14965;50.660;13.226;2023-05-10T03:23:40;9.02;;;6.18;;
27223;SDS011;14965;50.660;13.226;2023-05-10T03:26:18;10.98;;;6.45;;
27223;SDS011;14965;50.660;13.226;2023-05-10T03:28:49;10.25;;;5.75;;
27223;SDS011;14965;50.660;13.226;2023-05-10T03:31:46;10.63;;;6.13;;
27223;SDS011;14965;50.660;13.226;2023-05-10T03:34:12;14.98;;;6.40;;
27223;SDS011;14965;50.660;13.226;2023-05-10T03:36:38;9.40;;;5.88;;
27223;SDS011;14965;50.660;13.226;2023-05-10T03:39:12;7.25;;;5.45;;
27223;SDS011;14965;50.660;13.226;2023-05-10T03:41:50;9.57;;;6.15;;
27223;SDS011;14965;50.660;13.226;2023-05-10T03:44:16;7.63;;;5.43;;
27223;SDS011;14965;50.660;13.226;2023-05-10T03:46:42;11.60;;;5.68;;
27223;SDS011;14965;50.660;13.226;2023-05-10T03:49:11;9.57;;;5.88;;
27223;SDS011;14965;50.660;13.226;2023-05-10T03:51:37;11.23;;;6.20;;
27223;SDS011;14965;50.660;13.226;2023-05-10T03:54:03;7.80;;;5.82;;
27223;SDS011;14965;50.660;13.226;2023-05-10T03:56:29;10.65;;;6.10;;
27223;SDS011;14965;50.660;13.226;2023-05-10T03:58:56;8.18;;;5.90;;
27223;SDS011;14965;50.660;13.226;2023-05-10T04:01:22;8.52;;;5.45;;
27223;SDS011;14965;50.660;13.226;2023-05-10T04:03:48;10.20;;;5.43;;
27223;SDS011;14965;50.660;13.226;2023-05-10T04:06:17;9.95;;;5.30;;
27223;SDS011;14965;50.660;13.226;2023-05-10T04:08:47;9.10;;;5.40;;
27223;SDS011;14965;50.660;13.226;2023-05-10T04:11:16;9.18;;;6.15;;
27223;SDS011;14965;50.660;13.226;2023-05-10T04:13:42;8.98;;;5.30;;
27223;SDS011;14965;50.660;13.226;2023-05-10T04:16:16;8.93;;;5.88;;
27223;SDS011;14965;50.660;13.226;2023-05-10T04:18:46;7.78;;;5.38;;
27223;SDS011;14965;50.660;13.226;2023-05-10T04:21:12;9.82;;;5.45;;
27223;SDS011;14965;50.660;13.226;2023-05-10T04:23:39;10.75;;;5.38;;
27223;SDS011;14965;50.660;13.226;2023-05-10T04:26:06;9.45;;;5.43;;
27223;SDS011;14965;50.660;13.226;2023-05-10T04:28:50;8.55;;;5.05;;
27223;SDS011;14965;50.660;13.226;2023-05-10T04:31:18;13.90;;;5.13;;
27223;SDS011;14965;50.660;13.226;2023-05-10T04:33:53;8.45;;;5.00;;
27223;SDS011;14965;50.660;13.226;2023-05-10T04:36:27;8.20;;;4.73;;
27223;SDS011;14965;50.660;13.226;2023-05-10T04:39:01;7.53;;;4.82;;
27223;SDS011;14965;50.660;13.226;2023-05-10T04:55:29;6.65;;;4.00;;
27223;SDS011;14965;50.660;13.226;2023-05-10T04:57:57;5.80;;;4.28;;
27223;SDS011;14965;50.660;13.226;2023-05-10T05:03:34;6.38;;;4.22;;
27223;SDS011;14965;50.660;13.226;2023-05-10T05:06:07;6.60;;;3.72;;
27223;SDS011;14965;50.660;13.226;2023-05-10T05:08:50;5.18;;;3.97;;
27223;SDS011;14965;50.660;13.226;2023-05-10T05:11:21;7.25;;;4.30;;
27223;SDS011;14965;50.660;13.226;2023-05-10T05:14:04;5.60;;;3.72;;
27223;SDS011;14965;50.660;13.226;2023-05-10T05:16:33;9.23;;;3.97;;
27223;SDS011;14965;50.660;13.226;2023-05-10T05:19:11;6.78;;;4.45;;
27223;SDS011;14965;50.660;13.226;2023-05-10T05:21:50;8.43;;;4.10;;
27223;SDS011;14965;50.660;13.226;2023-05-10T05:25:05;8.63;;;4.50;;
27223;SDS011;14965;50.660;13.226;2023-05-10T05:27:33;5.63;;;4.10;;
27223;SDS011;14965;50.660;13.226;2023-05-10T05:30:12;7.07;;;4.10;;
27223;SDS011;14965;50.660;13.226;2023-05-10T05:32:59;4.88;;;3.67;;
27223;SDS011;14965;50.660;13.226;2023-05-10T05:35:36;9.68;;;4.05;;
27223;SDS011;14965;50.660;13.226;2023-05-10T05:38:05;5.88;;;4.00;;
27223;SDS011;14965;50.660;13.226;2023-05-10T05:47:24;5.78;;;3.78;;
27223;SDS011;14965;50.660;13.226;2023-05-10T05:49:50;6.68;;;3.65;;
27223;SDS011;14965;50.660;13.226;2023-05-10T05:52:19;6.68;;;3.97;;
27223;SDS011;14965;50.660;13.226;2023-05-10T05:54:52;8.43;;;4.00;;
27223;SDS011;14965;50.660;13.226;2023-05-10T05:57:22;5.87;;;4.30;;
27223;SDS011;14965;50.660;13.226;2023-05-10T05:59:59;5.97;;;4.45;;
27223;SDS011;14965;50.660;13.226;2023-05-10T06:02:49;9.82;;;4.60;;
27223;SDS011;14965;50.660;13.226;2023-05-10T06:05:38;7.13;;;4.82;;
27223;SDS011;14965;50.660;13.226;2023-05-10T06:08:04;7.40;;;4.80;;
27223;SDS011;14965;50.660;13.226;2023-05-10T06:10:44;7.40;;;4.60;;
27223;SDS011;14965;50.660;13.226;2023-05-10T06:13:13;6.70;;;4.28;;
27223;SDS011;14965;50.660;13.226;2023-05-10T06:15:40;5.93;;;4.25;;
27223;SDS011;14965;50.660;13.226;2023-05-10T06:18:14;11.52;;;4.22;;
27223;SDS011;14965;50.660;13.226;2023-05-10T06:20:43;5.80;;;4.18;;
27223;SDS011;14965;50.660;13.226;2023-05-10T06:23:20;7.03;;;4.22;;
27223;SDS011;14965;50.660;13.226;2023-05-10T06:25:50;7.95;;;4.53;;
27223;SDS011;14965;50.660;13.226;2023-05-10T06:28:16;10.38;;;4.35;;
27223;SDS011;14965;50.660;13.226;2023-05-10T06:37:34;6.13;;;4.40;;
27223;SDS011;14965;50.660;13.226;2023-05-10T06:40:08;8.68;;;4.05;;
27223;SDS011;14965;50.660;13.226;2023-05-10T06:42:35;7.03;;;4.40;;
27223;SDS011;14965;50.660;13.226;2023-05-10T06:48:34;11.07;;;4.82;;
27223;SDS011;14965;50.660;13.226;2023-05-10T06:51:28;6.60;;;3.90;;
27223;SDS011;14965;50.660;13.226;2023-05-10T06:53:54;6.97;;;3.90;;
27223;SDS011;14965;50.660;13.226;2023-05-10T06:56:20;7.53;;;4.57;;
27223;SDS011;14965;50.660;13.226;2023-05-10T06:58:48;6.35;;;4.78;;
27223;SDS011;14965;50.660;13.226;2023-05-10T07:01:14;9.27;;;4.70;;
27223;SDS011;14965;50.660;13.226;2023-05-10T07:03:40;7.03;;;4.47;;
27223;SDS011;14965;50.660;13.226;2023-05-10T07:06:09;7.78;;;4.65;;
27223;SDS011;14965;50.660;13.226;2023-05-10T07:08:53;8.00;;;4.50;;
27223;SDS011;14965;50.660;13.226;2023-05-10T07:11:19;11.10;;;4.72;;
27223;SDS011;14965;50.660;13.226;2023-05-10T07:13:45;9.18;;;4.50;;
27223;SDS011;14965;50.660;13.226;2023-05-10T07:16:11;9.80;;;4.72;;
27223;SDS011;14965;50.660;13.226;2023-05-10T07:18:37;12.65;;;4.43;;
27223;SDS011;14965;50.660;13.226;2023-05-10T07:21:03;7.97;;;4.47;;
27223;SDS011;14965;50.660;13.226;2023-05-10T07:23:29;8.35;;;4.80;;
27223;SDS011;14965;50.660;13.226;2023-05-10T07:25:56;7.20;;;4.50;;
27223;SDS011;14965;50.660;13.226;2023-05-10T07:28:22;9.30;;;4.72;;
27223;SDS011;14965;50.660;13.226;2023-05-10T07:30:48;13.00;;;5.00;;
27223;SDS011;14965;50.660;13.226;2023-05-10T07:33:15;9.77;;;5.07;;
27223;SDS011;14965;50.660;13.226;2023-05-10T07:35:41;7.22;;;4.90;;
27223;SDS011;14965;50.660;13.226;2023-05-10T07:38:07;10.55;;;6.93;;
27223;SDS011;14965;50.660;13.226;2023-05-10T07:40:33;7.72;;;5.10;;
27223;SDS011;14965;50.660;13.226;2023-05-10T07:43:00;10.43;;;5.40;;
27223;SDS011;14965;50.660;13.226;2023-05-10T07:45:26;14.60;;;5.35;;
27223;SDS011;14965;50.660;13.226;2023-05-10T07:47:52;7.85;;;4.95;;
27223;SDS011;14965;50.660;13.226;2023-05-10T07:50:18;9.77;;;5.20;;
27223;SDS011;14965;50.660;13.226;2023-05-10T07:52:44;7.68;;;4.70;;
27223;SDS011;14965;50.660;13.226;2023-05-10T07:55:10;6.40;;;4.53;;
27223;SDS011;14965;50.660;13.226;2023-05-10T07:57:37;9.57;;;5.03;;
27223;SDS011;14965;50.660;13.226;2023-05-10T08:00:06;10.73;;;5.45;;
27223;SDS011;14965;50.660;13.226;2023-05-10T08:02:34;6.03;;;4.45;;
27223;SDS011;14965;50.660;13.226;2023-05-10T08:05:04;11.33;;;4.77;;
27223;SDS011;14965;50.660;13.226;2023-05-10T08:07:44;9.20;;;4.57;;
27223;SDS011;14965;50.660;13.226;2023-05-10T08:10:24;7.68;;;4.70;;
27223;SDS011;14965;50.660;13.226;2023-05-10T08:12:50;8.40;;;4.55;;
27223;SDS011;14965;50.660;13.226;2023-05-10T08:15:21;7.50;;;4.35;;
27223;SDS011;14965;50.660;13.226;2023-05-10T08:17:47;7.03;;;4.50;;
27223;SDS011;14965;50.660;13.226;2023-05-10T08:20:13;8.77;;;4.70;;
27223;SDS011;14965;50.660;13.226;2023-05-10T08:22:39;8.35;;;4.90;;
27223;SDS011;14965;50.660;13.226;2023-05-10T08:25:07;9.38;;;4.55;;
27223;SDS011;14965;50.660;13.226;2023-05-10T08:27:34;8.02;;;5.05;;
27223;SDS011;14965;50.660;13.226;2023-05-10T08:30:01;5.47;;;4.47;;
27223;SDS011;14965;50.660;13.226;2023-05-10T08:32:28;9.63;;;4.53;;
27223;SDS011;14965;50.660;13.226;2023-05-10T08:34:54;8.00;;;4.65;;
27223;SDS011;14965;50.660;13.226;2023-05-10T08:37:20;7.50;;;4.80;;
27223;SDS011;14965;50.660;13.226;2023-05-10T08:39:47;8.82;;;5.00;;
27223;SDS011;14965;50.660;13.226;2023-05-10T08:42:13;5.93;;;4.32;;
27223;SDS011;14965;50.660;13.226;2023-05-10T08:44:48;7.57;;;4.50;;
27223;SDS011;14965;50.660;13.226;2023-05-10T08:47:15;5.50;;;4.82;;
27223;SDS011;14965;50.660;13.226;2023-05-10T08:49:45;10.02;;;5.15;;
27223;SDS011;14965;50.660;13.226;2023-05-10T08:52:13;8.63;;;5.20;;
27223;SDS011;14965;50.660;13.226;2023-05-10T08:54:42;9.65;;;5.38;;
27223;SDS011;14965;50.660;13.226;2023-05-10T08:57:08;9.02;;;5.07;;
27223;SDS011;14965;50.660;13.226;2023-05-10T08:59:35;6.40;;;5.18;;
27223;SDS011;14965;50.660;13.226;2023-05-10T09:02:01;9.05;;;5.00;;
27223;SDS011;14965;50.660;13.226;2023-05-10T09:04:30;10.70;;;5.25;;
27223;SDS011;14965;50.660;13.226;2023-05-10T09:06:57;9.50;;;5.60;;
27223;SDS011;14965;50.660;13.226;2023-05-10T09:09:23;9.30;;;5.35;;
27223;SDS011;14965;50.660;13.226;2023-05-10T09:11:52;11.30;;;5.28;;
27223;SDS011;14965;50.660;13.226;2023-05-10T09:14:19;7.93;;;5.20;;
27223;SDS011;14965;50.660;13.226;2023-05-10T09:16:45;9.60;;;5.22;;
27223;SDS011;14965;50.660;13.226;2023-05-10T09:19:12;11.07;;;5.15;;
27223;SDS011;14965;50.660;13.226;2023-05-10T09:21:38;8.63;;;5.50;;
27223;SDS011;14965;50.660;13.226;2023-05-10T09:24:06;9.45;;;5.82;;
27223;SDS011;14965;50.660;13.226;2023-05-10T09:29:32;10.63;;;6.25;;
27223;SDS011;14965;50.660;13.226;2023-05-10T09:35:51;12.52;;;6.28;;
27223;SDS011;14965;50.660;13.226;2023-05-10T09:38:18;8.43;;;5.70;;
27223;SDS011;14965;50.660;13.226;2023-05-10T09:40:51;11.55;;;5.60;;
27223;SDS011;14965;50.660;13.226;2023-05-10T09:44:20;7.85;;;5.55;;
27223;SDS011;14965;50.660;13.226;2023-05-10T09:46:14;12.38;;;6.55;;
27223;SDS011;14965;50.660;13.226;2023-05-10T09:48:42;8.40;;;6.10;;
27223;SDS011;14965;50.660;13.226;2023-05-10T09:51:18;9.25;;;6.30;;
27223;SDS011;14965;50.660;13.226;2023-05-10T09:53:52;13.10;;;5.70;;
27223;SDS011;14965;50.660;13.226;2023-05-10T09:56:45;9.43;;;6.50;;
27223;SDS011;14965;50.660;13.226;2023-05-10T09:59:11;12.40;;;6.70;;
27223;SDS011;14965;50.660;13.226;2023-05-10T10:01:38;8.43;;;5.75;;
27223;SDS011;14965;50.660;13.226;2023-05-10T10:04:09;9.00;;;5.88;;
27223;SDS011;14965;50.660;13.226;2023-05-10T10:06:57;8.82;;;6.30;;
27223;SDS011;14965;50.660;13.226;2023-05-10T10:09:25;8.30;;;5.97;;
27223;SDS011;14965;50.660;13.226;2023-05-10T10:15:49;10.05;;;5.80;;
27223;SDS011;14965;50.660;13.226;2023-05-10T10:18:46;7.15;;;5.50;;
27223;SDS011;14965;50.660;13.226;2023-05-10T10:21:17;10.18;;;6.38;;
27223;SDS011;14965;50.660;13.226;2023-05-10T10:23:49;12.93;;;5.90;;
27223;SDS011;14965;50.660;13.226;2023-05-10T10:26:22;8.18;;;6.07;;
27223;SDS011;14965;50.660;13.226;2023-05-10T10:29:19;8.05;;;5.65;;
27223;SDS011;14965;50.660;13.226;2023-05-10T10:32:22;8.95;;;5.60;;
27223;SDS011;14965;50.660;13.226;2023-05-10T10:34:55;13.43;;;5.82;;
27223;SDS011;14965;50.660;13.226;2023-05-10T10:37:21;11.00;;;6.38;;
27223;SDS011;14965;50.660;13.226;2023-05-10T10:39:47;8.38;;;5.53;;
27223;SDS011;14965;50.660;13.226;2023-05-10T10:42:28;9.85;;;5.57;;
27223;SDS011;14965;50.660;13.226;2023-05-10T10:45:13;10.30;;;5.60;;
27223;SDS011;14965;50.660;13.226;2023-05-10T10:47:42;7.22;;;5.57;;
27223;SDS011;14965;50.660;13.226;2023-05-10T10:50:10;8.90;;;6.13;;
27223;SDS011;14965;50.660;13.226;2023-05-10T10:52:43;9.55;;;6.03;;
27223;SDS011;14965;50.660;13.226;2023-05-10T10:55:40;12.33;;;6.13;;
27223;SDS011;14965;50.660;13.226;2023-05-10T10:58:28;7.13;;;5.65;;
27223;SDS011;14965;50.660;13.226;2023-05-10T11:01:26;8.20;;;6.20;;
27223;SDS011;14965;50.660;13.226;2023-05-10T11:04:24;9.80;;;6.93;;
27223;SDS011;14965;50.660;13.226;2023-05-10T11:06:52;12.52;;;6.93;;
27223;SDS011;14965;50.660;13.226;2023-05-10T11:09:50;15.13;;;7.13;;
27223;SDS011;14965;50.660;13.226;2023-05-10T11:12:16;10.80;;;6.88;;
27223;SDS011;14965;50.660;13.226;2023-05-10T11:14:49;9.43;;;6.82;;
27223;SDS011;14965;50.660;13.226;2023-05-10T11:17:25;10.93;;;6.47;;
27223;SDS011;14965;50.660;13.226;2023-05-10T11:20:06;9.10;;;6.82;;
27223;SDS011;14965;50.660;13.226;2023-05-10T11:22:48;7.25;;;5.57;;
27223;SDS011;14965;50.660;13.226;2023-05-10T11:25:16;9.55;;;6.45;;
27223;SDS011;14965;50.660;13.226;2023-05-10T11:27:43;10.50;;;6.88;;
27223;SDS011;14965;50.660;13.226;2023-05-10T11:30:12;12.52;;;6.70;;
27223;SDS011;14965;50.660;13.226;2023-05-10T11:32:40;8.75;;;5.88;;
27223;SDS011;14965;50.660;13.226;2023-05-10T11:35:06;10.27;;;5.95;;
27223;SDS011;14965;50.660;13.226;2023-05-10T11:37:36;10.82;;;7.00;;
27223;SDS011;14965;50.660;13.226;2023-05-10T11:40:04;10.77;;;6.43;;
27223;SDS011;14965;50.660;13.226;2023-05-10T11:42:35;9.82;;;7.05;;
27223;SDS011;14965;50.660;13.226;2023-05-10T11:45:08;10.63;;;7.18;;
27223;SDS011;14965;50.660;13.226;2023-05-10T11:47:36;12.50;;;6.85;;
27223;SDS011;14965;50.660;13.226;2023-05-10T11:50:09;9.70;;;6.68;;
27223;SDS011;14965;50.660;13.226;2023-05-10T11:52:39;14.75;;;6.53;;
27223;SDS011;14965;50.660;13.226;2023-05-10T11:55:07;10.90;;;7.25;;
27223;SDS011;14965;50.660;13.226;2023-05-10T11:57:38;10.88;;;7.07;;
27223;SDS011;14965;50.660;13.226;2023-05-10T12:00:05;10.25;;;6.70;;
27223;SDS011;14965;50.660;13.226;2023-05-10T12:02:34;9.60;;;6.63;;
27223;SDS011;14965;50.660;13.226;2023-05-10T12:05:00;9.52;;;6.63;;
27223;SDS011;14965;50.660;13.226;2023-05-10T12:07:28;10.63;;;6.53;;
27223;SDS011;14965;50.660;13.226;2023-05-10T12:10:02;8.93;;;6.60;;
27223;SDS011;14965;50.660;13.226;2023-05-10T12:12:42;11.88;;;6.50;;
27223;SDS011;14965;50.660;13.226;2023-05-10T12:15:12;8.07;;;5.60;;
27223;SDS011;14965;50.660;13.226;2023-05-10T12:17:46;11.30;;;6.18;;
27223;SDS011;14965;50.660;13.226;2023-05-10T12:20:13;7.43;;;5.13;;
27223;SDS011;14965;50.660;13.226;2023-05-10T12:22:43;12.40;;;5.97;;
27223;SDS011;14965;50.660;13.226;2023-05-10T12:25:29;10.40;;;5.82;;
27223;SDS011;14965;50.660;13.226;2023-05-10T12:28:06;7.40;;;5.80;;
27223;SDS011;14965;50.660;13.226;2023-05-10T12:30:36;12.43;;;5.72;;
27223;SDS011;14965;50.660;13.226;2023-05-10T12:33:06;11.70;;;5.47;;
27223;SDS011;14965;50.660;13.226;2023-05-10T12:35:43;8.93;;;5.63;;
27223;SDS011;14965;50.660;13.226;2023-05-10T12:38:26;10.05;;;5.43;;
27223;SDS011;14965;50.660;13.226;2023-05-10T12:40:54;6.93;;;5.07;;
27223;SDS011;14965;50.660;13.226;2023-05-10T12:43:22;8.32;;;5.05;;
27223;SDS011;14965;50.660;13.226;2023-05-10T12:45:48;7.20;;;4.80;;
27223;SDS011;14965;50.660;13.226;2023-05-10T12:48:14;9.20;;;4.95;;
27223;SDS011;14965;50.660;13.226;2023-05-10T12:50:40;7.32;;;4.68;;
27223;SDS011;14965;50.660;13.226;2023-05-10T12:53:06;8.70;;;4.95;;
27223;SDS011;14965;50.660;13.226;2023-05-10T12:55:32;5.65;;;4.30;;
27223;SDS011;14965;50.660;13.226;2023-05-10T12:57:58;6.25;;;4.40;;
27223;SDS011;14965;50.660;13.226;2023-05-10T13:00:26;7.22;;;4.80;;
27223;SDS011;14965;50.660;13.226;2023-05-10T13:02:52;8.57;;;5.25;;
27223;SDS011;14965;50.660;13.226;2023-05-10T13:05:18;16.95;;;10.85;;
27223;SDS011;14965;50.660;13.226;2023-05-10T13:10:15;8.68;;;6.43;;
27223;SDS011;14965;50.660;13.226;2023-05-10T13:15:11;9.35;;;7.18;;
27223;SDS011;14965;50.660;13.226;2023-05-10T13:17:41;10.70;;;5.63;;
27223;SDS011;14965;50.660;13.226;2023-05-10T13:20:10;10.85;;;7.00;;
27223;SDS011;14965;50.660;13.226;2023-05-10T13:22:36;9.23;;;6.00;;
27223;SDS011;14965;50.660;13.226;2023-05-10T13:25:03;8.68;;;6.20;;
27223;SDS011;14965;50.660;13.226;2023-05-10T13:27:35;11.50;;;6.68;;
27223;SDS011;14965;50.660;13.226;2023-05-10T13:30:04;7.90;;;5.60;;
27223;SDS011;14965;50.660;13.226;2023-05-10T13:35:00;11.75;;;5.57;;
27223;SDS011;14965;50.660;13.226;2023-05-10T13:37:26;8.02;;;5.55;;
27223;SDS011;14965;50.660;13.226;2023-05-10T13:39:52;9.35;;;6.32;;
27223;SDS011;14965;50.660;13.226;2023-05-10T13:42:18;12.50;;;5.78;;
27223;SDS011;14965;50.660;13.226;2023-05-10T13:44:44;7.55;;;5.30;;
27223;SDS011;14965;50.660;13.226;2023-05-10T13:47:09;5.90;;;4.35;;
27223;SDS011;14965;50.660;13.226;2023-05-10T13:49:35;9.23;;;4.82;;
27223;SDS011;14965;50.660;13.226;2023-05-10T13:52:03;8.55;;;3.97;;
27223;SDS011;14965;50.660;13.226;2023-05-10T13:54:29;6.75;;;4.28;;
27223;SDS011;14965;50.660;13.226;2023-05-10T13:56:55;8.73;;;4.13;;
27223;SDS011;14965;50.660;13.226;2023-05-10T13:59:20;4.50;;;3.10;;
27223;SDS011;14965;50.660;13.226;2023-05-10T14:01:46;3.90;;;3.28;;
27223;SDS011;14965;50.660;13.226;2023-05-10T14:04:12;6.93;;;3.75;;
27223;SDS011;14965;50.660;13.226;2023-05-10T14:06:38;4.50;;;3.63;;
27223;SDS011;14965;50.660;13.226;2023-05-10T14:09:05;5.35;;;3.22;;
27223;SDS011;14965;50.660;13.226;2023-05-10T14:11:31;5.47;;;2.83;;
27223;SDS011;14965;50.660;13.226;2023-05-10T14:13:57;4.22;;;2.88;;
27223;SDS011;14965;50.660;13.226;2023-05-10T14:16:22;4.18;;;3.00;;
27223;SDS011;14965;50.660;13.226;2023-05-10T14:18:48;6.43;;;5.50;;
27223;SDS011;14965;50.660;13.226;2023-05-10T14:21:14;4.18;;;3.40;;
27223;SDS011;14965;50.660;13.226;2023-05-10T14:23:40;4.63;;;3.20;;
27223;SDS011;14965;50.660;13.226;2023-05-10T14:26:07;8.25;;;5.43;;
27223;SDS011;14965;50.660;13.226;2023-05-10T14:28:33;6.70;;;4.68;;
27223;SDS011;14965;50.660;13.226;2023-05-10T14:30:59;5.05;;;3.40;;
27223;SDS011;14965;50.660;13.226;2023-05-10T14:33:25;4.72;;;3.45;;
27223;SDS011;14965;50.660;13.226;2023-05-10T14:35:51;3.67;;;3.25;;
27223;SDS011;14965;50.660;13.226;2023-05-10T14:38:16;3.85;;;2.90;;
27223;SDS011;14965;50.660;13.226;2023-05-10T14:40:42;3.15;;;2.85;;
27223;SDS011;14965;50.660;13.226;2023-05-10T14:43:10;3.60;;;3.13;;
27223;SDS011;14965;50.660;13.226;2023-05-10T14:45:35;3.35;;;2.83;;
27223;SDS011;14965;50.660;13.226;2023-05-10T14:48:01;7.20;;;3.55;;
27223;SDS011;14965;50.660;13.226;2023-05-10T14:50:27;3.55;;;2.97;;
27223;SDS011;14965;50.660;13.226;2023-05-10T14:52:53;3.83;;;2.80;;
27223;SDS011;14965;50.660;13.226;2023-05-10T14:55:19;4.22;;;3.30;;
27223;SDS011;14965;50.660;13.226;2023-05-10T14:57:45;3.60;;;3.00;;
27223;SDS011;14965;50.660;13.226;2023-05-10T15:00:13;3.85;;;3.20;;
27223;SDS011;14965;50.660;13.226;2023-05-10T15:05:05;5.28;;;2.92;;
27223;SDS011;14965;50.660;13.226;2023-05-10T15:07:32;4.40;;;3.40;;
27223;SDS011;14965;50.660;13.226;2023-05-10T15:09:58;4.72;;;3.03;;
27223;SDS011;14965;50.660;13.226;2023-05-10T15:12:24;5.30;;;3.20;;
27223;SDS011;14965;50.660;13.226;2023-05-10T15:14:49;3.50;;;3.03;;
27223;SDS011;14965;50.660;13.226;2023-05-10T15:17:17;4.32;;;3.50;;
27223;SDS011;14965;50.660;13.226;2023-05-10T15:19:42;5.40;;;3.63;;
27223;SDS011;14965;50.660;13.226;2023-05-10T15:22:08;5.75;;;3.60;;
27223;SDS011;14965;50.660;13.226;2023-05-10T15:24:34;4.55;;;3.30;;
27223;SDS011;14965;50.660;13.226;2023-05-10T15:27:00;6.07;;;3.78;;
27223;SDS011;14965;50.660;13.226;2023-05-10T15:29:26;4.63;;;3.50;;
27223;SDS011;14965;50.660;13.226;2023-05-10T15:31:52;5.43;;;3.60;;
27223;SDS011;14965;50.660;13.226;2023-05-10T15:34:19;8.27;;;4.60;;
27223;SDS011;14965;50.660;13.226;2023-05-10T15:36:45;5.68;;;3.20;;
27223;SDS011;14965;50.660;13.226;2023-05-10T15:39:10;6.70;;;3.65;;
27223;SDS011;14965;50.660;13.226;2023-05-10T15:41:36;4.75;;;3.00;;
27223;SDS011;14965;50.660;13.226;2023-05-10T15:44:02;5.22;;;3.50;;
27223;SDS011;14965;50.660;13.226;2023-05-10T15:46:29;3.97;;;3.28;;
27223;SDS011;14965;50.660;13.226;2023-05-10T15:48:56;5.45;;;3.40;;
27223;SDS011;14965;50.660;13.226;2023-05-10T15:51:24;3.92;;;3.15;;
27223;SDS011;14965;50.660;13.226;2023-05-10T15:53:50;4.90;;;3.70;;
27223;SDS011;14965;50.660;13.226;2023-05-10T15:56:16;10.65;;;4.57;;
27223;SDS011;14965;50.660;13.226;2023-05-10T15:58:42;11.35;;;7.38;;
27223;SDS011;14965;50.660;13.226;2023-05-10T16:01:08;39.55;;;23.70;;
27223;SDS011;14965;50.660;13.226;2023-05-10T16:03:35;64.55;;;41.78;;
27223;SDS011;14965;50.660;13.226;2023-05-10T16:06:00;52.63;;;35.55;;
27223;SDS011;14965;50.660;13.226;2023-05-10T16:08:28;17.58;;;12.48;;
27223;SDS011;14965;50.660;13.226;2023-05-10T16:10:54;9.75;;;7.32;;
27223;SDS011;14965;50.660;13.226;2023-05-10T16:13:22;9.52;;;6.45;;
27223;SDS011;14965;50.660;13.226;2023-05-10T16:15:48;9.57;;;8.07;;
27223;SDS011;14965;50.660;13.226;2023-05-10T16:18:14;11.02;;;8.82;;
27223;SDS011;14965;50.660;13.226;2023-05-10T16:20:40;10.95;;;8.48;;
27223;SDS011;14965;50.660;13.226;2023-05-10T16:23:06;8.18;;;6.57;;
27223;SDS011;14965;50.660;13.226;2023-05-10T16:25:33;8.88;;;6.95;;
27223;SDS011;14965;50.660;13.226;2023-05-10T16:28:00;6.70;;;5.70;;
27223;SDS011;14965;50.660;13.226;2023-05-10T16:30:26;11.65;;;7.22;;
27223;SDS011;14965;50.660;13.226;2023-05-10T16:32:52;6.75;;;6.03;;
27223;SDS011;14965;50.660;13.226;2023-05-10T16:35:18;6.57;;;5.55;;
27223;SDS011;14965;50.660;13.226;2023-05-10T16:37:44;8.30;;;4.90;;
27223;SDS011;14965;50.660;13.226;2023-05-10T16:40:10;8.55;;;7.65;;
27223;SDS011;14965;50.660;13.226;2023-05-10T16:42:38;6.38;;;5.60;;
27223;SDS011;14965;50.660;13.226;2023-05-10T16:45:04;10.60;;;7.72;;
27223;SDS011;14965;50.660;13.226;2023-05-10T16:47:32;13.13;;;9.27;;
27223;SDS011;14965;50.660;13.226;2023-05-10T16:49:58;6.68;;;5.55;;
27223;SDS011;14965;50.660;13.226;2023-05-10T16:52:24;10.48;;;6.10;;
27223;SDS011;14965;50.660;13.226;2023-05-10T16:54:51;11.10;;;7.00;;
27223;SDS011;14965;50.660;13.226;2023-05-10T16:57:19;9.93;;;5.68;;
27223;SDS011;14965;50.660;13.226;2023-05-10T16:59:46;7.60;;;4.93;;
27223;SDS011;14965;50.660;13.226;2023-05-10T17:02:12;7.45;;;5.10;;
27223;SDS011;14965;50.660;13.226;2023-05-10T17:04:38;7.63;;;4.85;;
27223;SDS011;14965;50.660;13.226;2023-05-10T17:07:04;6.18;;;4.60;;
27223;SDS011;14965;50.660;13.226;2023-05-10T17:09:30;8.02;;;4.95;;
27223;SDS011;14965;50.660;13.226;2023-05-10T17:11:56;8.93;;;5.28;;
27223;SDS011;14965;50.660;13.226;2023-05-10T17:14:22;9.88;;;5.43;;
27223;SDS011;14965;50.660;13.226;2023-05-10T17:16:50;9.07;;;5.25;;
27223;SDS011;14965;50.660;13.226;2023-05-10T17:19:15;7.72;;;5.50;;